Utsunomiya Airport

Current Flights

Departures
Number Departure To Airline
Arrivals
Number Arrival From Airline
Info
Name: Utsunomiya Airport
Identifier:  QUT/RJTU
Local Time:  20. May 18:50
City
Current Weather
 20 C (Humidity: 64%)
  15kt (27km/h / 17mph) from 140°
  Few clouds at 3,000 feet (914 meter)
  Scattered clouds at 5,000 feet (1,524 meter)
  Broken clouds at 7,000 feet (2,133 meter)
  9km (6 mi.)
 METAR RJTU 200620Z 14015KT 9999 FEW030 SCT050 BKN070 20/13 Q1015 RMK 1CU030 3SC050 7AC070 A2997 MAX WIND 22KT

Current Delays

Departures
N/A
Arrivals
N/A